• Join FlightAware (Why Join?)
  • Login
  • US Flag 
11:50AM EDT


 

Airport Tracker/Info


-or-


 

Live Flight TrackerFlight Track Log ✈ EJA695 ✈ 17-Jul-2013 ✈ KTEB - KSFM

Flight Track Log - Related Links

Times and Time Zones

All times are in EDT time to prevent confusion due to time zone crossing. See the EJA695 flight status page for this flight to view local times or setup timezone preferences in your user account.

Time Position Orientation Groundspeed Altitude Reporting Facility
EDT Latitude Longitude Course Direction KTS MPH feet Rate Location/Type
09:07PM 40.8333 -74.1000 43° Northeast 182 209 1,600  Level New York TRACON
09:08PM 40.8167 -74.1833 255° West 218 251 2,500 1,860 Climbing New York TRACON
09:09PM 40.8167 -74.2500 270° West 243 280 5,600 1,800 Climbing New York TRACON
09:10PM 40.8833 -74.2833 339° North 272 313 6,100 240 Climbing New York TRACON
09:11PM 40.9500 -74.2500 21° North 278 320 6,100  Level New York TRACON
09:12PM 41.0167 -74.2000 30° Northeast 278 320 6,100  Level New York TRACON
09:13PM 41.2427 -73.5685 43° Northeast  Level Estimated
09:13PM 41.0500 -74.1000 66° East 280 322 6,100  Level New York TRACON
09:14PM 41.1000 -74.0167 51° Northeast 280 322 8,300 2,280 Climbing New York TRACON
09:15PM 41.1333 -73.9167 66° East 291 335 11,000 1,740 Climbing New York TRACON
09:17PM 41.2133 -73.7425 59° Northeast 352 405 13,300 1,260 Climbing Boston Center
09:18PM 41.2603 -73.6275 61° Northeast 352 405 14,500 1,200 Climbing Boston Center
09:19PM 41.3219 -73.5264 51° Northeast 346 398 15,800 1,200 Climbing Boston Center
09:20PM 41.3894 -73.4361 45° Northeast 346 398 16,900 1,200 Climbing Boston Center
09:21PM 41.4611 -73.3431 44° Northeast 346 398 18,200 1,200 Climbing Boston Center
09:22PM 41.5347 -73.2444 45° Northeast 358 412 19,300 1,140 Climbing Boston Center
09:23PM 41.6042 -73.1536 44° Northeast 358 412 20,500 1,200 Climbing Boston Center
09:24PM 41.6981 -73.1186 16° North 348 400 21,800 1,200 Climbing Boston Center
09:25PM 41.8000 -73.1364 353° North 340 391 23,000 1,200 Climbing Boston Center
09:26PM 41.8981 -73.1542 352° North 345 397 24,200 960 Climbing Boston Center
09:27PM 41.9978 -73.1719 352° North 352 405 25,000 360 Climbing Boston Center
09:28PM 42.1083 -73.1789 357° North 373 429 25,000 -180 Level Boston Center
09:29PM 42.2006 -73.0903 35° Northeast 374 430 24,700 -600 Descending Boston Center
09:30PM 42.2575 -72.9450 62° Northeast 383 441 23,900 -1,020 Descending Boston Center
09:31PM 42.3144 -72.8022 62° Northeast 408 470 22,700 -1,200 Descending Boston Center
09:32PM 42.3753 -72.6536 61° Northeast 428 493 21,500 -900 Descending Boston Center
09:33PM 42.4317 -72.5075 62° Northeast 434 499 21,000 -360 Descending Boston Center
09:34PM 42.4900 -72.3808 58° Northeast 422 486 20,800 -900 Descending Boston Center
09:35PM 42.5753 -72.2878 39° Northeast 400 460 19,300 -1,440 Descending Boston Center
09:36PM 42.6503 -72.2169 35° Northeast 380 437 18,000 -1,440 Descending Boston Center
09:37PM 42.7061 -72.0672 63° Northeast 385 443 16,500 -1,500 Descending Boston Center
09:38PM 42.7453 -71.9481 66° East 385 443 15,100 -1,500 Descending Boston Center
09:39PM 42.7925 -71.8036 66° East 373 429 13,500 -1,500 Descending Boston Center
09:40PM 42.8378 -71.6869 62° Northeast 379 436 12,100 -1,500 Descending Boston Center
09:41PM 42.8889 -71.5531 62° Northeast 366 421 10,500 -1,080 Descending Boston Center
09:42PM 42.9297 -71.4506 61° Northeast 355 409 10,000 -300 Descending Boston Center
09:43PM 42.9806 -71.3192 62° Northeast 349 402 10,000 -660 Level Boston Center
09:44PM 43.0272 -71.1903 64° Northeast 317 365 8,600 -1,320 Descending Boston Center
09:45PM 43.0833 -71.0833 54° Northeast 289 333 6,800 -1,500 Descending KA90
09:46PM 43.1333 -71.0000 51° Northeast 274 315 5,300 -1,560 Descending KA90
09:47PM 43.1667 -70.9167 61° Northeast 287 330 3,900 -1,380 Descending KA90
09:48PM 43.2189 -70.8503 43° Northeast 282 325 2,900 -960 Descending Boston Center
09:49PM 43.2553 -70.7867 52° Northeast 262 302 2,200 -600 Descending Boston Center
09:50PM 43.2939 -70.7086 56° Northeast 230 265 1,800 -300 Descending Boston Center
09:51PM 43.3328 -70.6675 38° Northeast 205 236 1,700 -540 Descending Boston Center
09:52PM 43.3808 -70.6689 359° North 157 181 800 -660 Descending Boston Center
09:53PM 43.4061 -70.6939 324° Northwest 129 148 400 -420 Descending Boston Center